sensor_id;sensor_type;location;lat;lon;timestamp;pressure;altitude;pressure_sealevel;temperature;humidity
9905;BME280;4991;43.566;27.820;2022-12-18T00:01:26;99528.72;;;8.32;100.00
9905;BME280;4991;43.566;27.820;2022-12-18T00:03:53;99539.56;;;8.27;100.00
9905;BME280;4991;43.566;27.820;2022-12-18T00:06:20;99550.97;;;8.24;100.00
9905;BME280;4991;43.566;27.820;2022-12-18T00:08:47;99561.22;;;8.17;100.00
9905;BME280;4991;43.566;27.820;2022-12-18T00:11:16;99568.53;;;8.16;100.00
9905;BME280;4991;43.566;27.820;2022-12-18T00:13:42;99565.53;;;8.08;100.00
9905;BME280;4991;43.566;27.820;2022-12-18T00:16:10;99570.44;;;8.06;100.00
9905;BME280;4991;43.566;27.820;2022-12-18T00:18:36;99572.88;;;8.07;100.00
9905;BME280;4991;43.566;27.820;2022-12-18T00:21:04;99577.22;;;8.08;100.00
9905;BME280;4991;43.566;27.820;2022-12-18T00:23:33;99575.31;;;8.09;100.00
9905;BME280;4991;43.566;27.820;2022-12-18T00:26:01;99579.94;;;8.13;100.00
9905;BME280;4991;43.566;27.820;2022-12-18T00:28:27;99584.53;;;8.18;100.00
9905;BME280;4991;43.566;27.820;2022-12-18T00:31:08;99583.47;;;8.09;100.00
9905;BME280;4991;43.566;27.820;2022-12-18T00:33:35;99582.09;;;8.06;100.00
9905;BME280;4991;43.566;27.820;2022-12-18T00:36:06;99577.47;;;8.07;100.00
9905;BME280;4991;43.566;27.820;2022-12-18T00:38:33;99566.91;;;8.05;100.00
9905;BME280;4991;43.566;27.820;2022-12-18T00:40:58;99557.13;;;8.09;100.00
9905;BME280;4991;43.566;27.820;2022-12-18T00:43:24;99555.50;;;8.08;100.00
9905;BME280;4991;43.566;27.820;2022-12-18T00:45:50;99573.94;;;8.06;100.00
9905;BME280;4991;43.566;27.820;2022-12-18T00:48:15;99567.19;;;8.09;100.00
9905;BME280;4991;43.566;27.820;2022-12-18T00:50:41;99561.22;;;8.07;100.00
9905;BME280;4991;43.566;27.820;2022-12-18T00:53:10;99569.91;;;8.09;100.00
9905;BME280;4991;43.566;27.820;2022-12-18T00:55:37;99573.16;;;8.06;100.00
9905;BME280;4991;43.566;27.820;2022-12-18T00:58:03;99578.56;;;7.96;100.00
9905;BME280;4991;43.566;27.820;2022-12-18T01:00:28;99579.91;;;7.98;100.00
9905;BME280;4991;43.566;27.820;2022-12-18T01:02:54;99572.31;;;8.00;100.00
9905;BME280;4991;43.566;27.820;2022-12-18T01:05:19;99573.16;;;8.01;100.00
9905;BME280;4991;43.566;27.820;2022-12-18T01:07:45;99565.00;;;8.01;100.00
9905;BME280;4991;43.566;27.820;2022-12-18T01:10:12;99571.78;;;7.98;100.00
9905;BME280;4991;43.566;27.820;2022-12-18T01:12:38;99575.03;;;7.95;100.00
9905;BME280;4991;43.566;27.820;2022-12-18T01:15:05;99588.56;;;7.95;100.00
9905;BME280;4991;43.566;27.820;2022-12-18T01:17:32;99601.31;;;7.89;100.00
9905;BME280;4991;43.566;27.820;2022-12-18T01:19:58;99603.75;;;7.96;100.00
9905;BME280;4991;43.566;27.820;2022-12-18T01:22:23;99595.63;;;8.01;100.00
9905;BME280;4991;43.566;27.820;2022-12-18T01:24:49;99598.06;;;8.03;100.00
9905;BME280;4991;43.566;27.820;2022-12-18T01:27:15;99592.66;;;8.03;100.00
9905;BME280;4991;43.566;27.820;2022-12-18T01:29:40;99581.03;;;8.07;100.00
9905;BME280;4991;43.566;27.820;2022-12-18T01:32:06;99590.50;;;8.05;100.00
9905;BME280;4991;43.566;27.820;2022-12-18T01:34:31;99591.84;;;8.02;100.00
9905;BME280;4991;43.566;27.820;2022-12-18T01:36:57;99595.91;;;8.00;100.00
9905;BME280;4991;43.566;27.820;2022-12-18T01:39:23;99595.09;;;7.94;100.00
9905;BME280;4991;43.566;27.820;2022-12-18T01:41:49;99589.69;;;7.94;100.00
9905;BME280;4991;43.566;27.820;2022-12-18T01:49:49;99593.38;;;7.73;100.00
9905;BME280;4991;43.566;27.820;2022-12-18T01:52:16;99599.59;;;7.68;100.00
9905;BME280;4991;43.566;27.820;2022-12-18T01:54:43;99606.41;;;7.76;100.00
9905;BME280;4991;43.566;27.820;2022-12-18T01:57:09;99621.06;;;7.80;100.00
9905;BME280;4991;43.566;27.820;2022-12-18T01:59:35;99622.19;;;7.84;100.00
9905;BME280;4991;43.566;27.820;2022-12-18T02:02:02;99621.38;;;7.88;100.00
9905;BME280;4991;43.566;27.820;2022-12-18T02:04:28;99622.75;;;7.96;100.00
9905;BME280;4991;43.566;27.820;2022-12-18T02:09:47;99607.56;;;8.00;100.00
9905;BME280;4991;43.566;27.820;2022-12-18T02:12:20;99601.59;;;7.98;100.00
9905;BME280;4991;43.566;27.820;2022-12-18T02:17:28;99619.50;;;7.89;100.00
9905;BME280;4991;43.566;27.820;2022-12-18T02:20:32;99628.38;;;7.79;100.00
9905;BME280;4991;43.566;27.820;2022-12-18T02:28:27;99619.59;;;7.52;100.00
9905;BME280;4991;43.566;27.820;2022-12-18T02:30:54;99625.28;;;7.46;100.00
9905;BME280;4991;43.566;27.820;2022-12-18T02:33:25;99638.22;;;7.39;100.00
9905;BME280;4991;43.566;27.820;2022-12-18T02:35:53;99622.50;;;7.36;100.00
9905;BME280;4991;43.566;27.820;2022-12-18T02:38:20;99623.84;;;7.38;100.00
9905;BME280;4991;43.566;27.820;2022-12-18T02:40:46;99630.63;;;7.36;100.00
9905;BME280;4991;43.566;27.820;2022-12-18T02:43:15;99632.25;;;7.37;100.00
9905;BME280;4991;43.566;27.820;2022-12-18T02:45:49;99630.91;;;7.34;100.00
9905;BME280;4991;43.566;27.820;2022-12-18T02:48:16;99631.94;;;7.33;100.00
9905;BME280;4991;43.566;27.820;2022-12-18T02:50:55;99644.69;;;7.28;100.00
9905;BME280;4991;43.566;27.820;2022-12-18T02:53:30;99655.25;;;7.29;100.00
9905;BME280;4991;43.566;27.820;2022-12-18T02:58:45;99668.19;;;7.22;100.00
9905;BME280;4991;43.566;27.820;2022-12-18T03:04:07;99677.91;;;7.18;100.00
9905;BME280;4991;43.566;27.820;2022-12-18T03:06:38;99697.06;;;7.07;100.00
9905;BME280;4991;43.566;27.820;2022-12-18T03:09:11;99694.91;;;7.09;100.00
9905;BME280;4991;43.566;27.820;2022-12-18T03:11:40;99708.41;;;7.04;100.00
9905;BME280;4991;43.566;27.820;2022-12-18T03:14:29;99712.44;;;6.96;100.00
9905;BME280;4991;43.566;27.820;2022-12-18T03:17:00;99727.03;;;6.95;100.00
9905;BME280;4991;43.566;27.820;2022-12-18T03:19:28;99735.44;;;6.99;100.00
9905;BME280;4991;43.566;27.820;2022-12-18T03:21:57;99742.97;;;6.92;100.00
9905;BME280;4991;43.566;27.820;2022-12-18T03:24:26;99741.91;;;6.93;100.00
9905;BME280;4991;43.566;27.820;2022-12-18T03:27:00;99739.94;;;6.88;100.00
9905;BME280;4991;43.566;27.820;2022-12-18T03:29:36;99743.47;;;6.89;100.00
9905;BME280;4991;43.566;27.820;2022-12-18T03:32:11;99747.22;;;6.83;100.00
9905;BME280;4991;43.566;27.820;2022-12-18T03:34:40;99746.34;;;6.77;100.00
9905;BME280;4991;43.566;27.820;2022-12-18T03:37:06;99765.81;;;6.74;100.00
9905;BME280;4991;43.566;27.820;2022-12-18T03:39:33;99778.78;;;6.72;100.00
9905;BME280;4991;43.566;27.820;2022-12-18T03:42:10;99783.09;;;6.68;100.00
9905;BME280;4991;43.566;27.820;2022-12-18T03:54:51;99800.78;;;6.54;100.00
9905;BME280;4991;43.566;27.820;2022-12-18T03:57:22;99806.13;;;6.49;100.00
9905;BME280;4991;43.566;27.820;2022-12-18T03:59:56;99802.47;;;6.38;100.00
9905;BME280;4991;43.566;27.820;2022-12-18T04:02:24;99796.19;;;6.33;100.00
9905;BME280;4991;43.566;27.820;2022-12-18T04:04:52;99790.22;;;6.31;100.00
9905;BME280;4991;43.566;27.820;2022-12-18T04:07:20;99795.88;;;6.29;100.00
9905;BME280;4991;43.566;27.820;2022-12-18T04:09:48;99799.09;;;6.26;100.00
9905;BME280;4991;43.566;27.820;2022-12-18T04:12:14;99801.97;;;6.20;100.00
9905;BME280;4991;43.566;27.820;2022-12-18T04:14:40;99817.06;;;6.16;100.00
9905;BME280;4991;43.566;27.820;2022-12-18T04:17:05;99818.06;;;6.10;100.00
9905;BME280;4991;43.566;27.820;2022-12-18T04:19:31;99815.81;;;6.02;100.00
9905;BME280;4991;43.566;27.820;2022-12-18T04:21:57;99815.16;;;5.95;100.00
9905;BME280;4991;43.566;27.820;2022-12-18T04:24:22;99832.69;;;5.92;100.00
9905;BME280;4991;43.566;27.820;2022-12-18T04:26:48;99823.44;;;5.88;100.00
9905;BME280;4991;43.566;27.820;2022-12-18T04:29:13;99840.97;;;5.86;100.00
9905;BME280;4991;43.566;27.820;2022-12-18T04:31:39;99841.53;;;5.88;100.00
9905;BME280;4991;43.566;27.820;2022-12-18T04:34:04;99846.03;;;5.82;100.00
9905;BME280;4991;43.566;27.820;2022-12-18T04:36:30;99847.59;;;5.78;100.00
9905;BME280;4991;43.566;27.820;2022-12-18T04:38:56;99855.03;;;5.71;100.00
9905;BME280;4991;43.566;27.820;2022-12-18T04:41:21;99860.59;;;5.65;100.00
9905;BME280;4991;43.566;27.820;2022-12-18T04:43:47;99879.69;;;5.58;100.00
9905;BME280;4991;43.566;27.820;2022-12-18T04:46:13;99880.66;;;5.52;100.00
9905;BME280;4991;43.566;27.820;2022-12-18T04:48:38;99876.31;;;5.51;100.00
9905;BME280;4991;43.566;27.820;2022-12-18T04:51:05;99886.78;;;5.48;100.00
9905;BME280;4991;43.566;27.820;2022-12-18T04:53:31;99890.22;;;5.43;100.00
9905;BME280;4991;43.566;27.820;2022-12-18T04:56:10;99905.63;;;5.43;100.00
9905;BME280;4991;43.566;27.820;2022-12-18T04:58:38;99905.19;;;5.34;100.00
9905;BME280;4991;43.566;27.820;2022-12-18T05:01:04;99905.00;;;5.24;100.00
9905;BME280;4991;43.566;27.820;2022-12-18T05:03:30;99905.88;;;5.13;100.00
9905;BME280;4991;43.566;27.820;2022-12-18T05:05:56;99897.69;;;5.08;100.00
9905;BME280;4991;43.566;27.820;2022-12-18T05:08:22;99901.22;;;5.08;100.00
9905;BME280;4991;43.566;27.820;2022-12-18T05:10:48;99892.28;;;5.08;100.00
9905;BME280;4991;43.566;27.820;2022-12-18T05:13:14;99902.03;;;5.09;100.00
9905;BME280;4991;43.566;27.820;2022-12-18T05:15:39;99893.03;;;5.03;100.00
9905;BME280;4991;43.566;27.820;2022-12-18T05:18:05;99912.75;;;5.04;100.00
9905;BME280;4991;43.566;27.820;2022-12-18T05:20:31;99921.16;;;5.07;100.00
9905;BME280;4991;43.566;27.820;2022-12-18T05:22:56;99916.34;;;5.09;100.00
9905;BME280;4991;43.566;27.820;2022-12-18T05:25:22;99922.47;;;5.05;100.00
9905;BME280;4991;43.566;27.820;2022-12-18T05:27:48;99915.91;;;5.01;100.00
9905;BME280;4991;43.566;27.820;2022-12-18T05:30:15;99928.28;;;4.85;100.00
9905;BME280;4991;43.566;27.820;2022-12-18T05:32:41;99933.00;;;4.78;100.00
9905;BME280;4991;43.566;27.820;2022-12-18T05:35:08;99922.56;;;4.82;100.00
9905;BME280;4991;43.566;27.820;2022-12-18T05:37:35;99934.50;;;4.86;100.00
9905;BME280;4991;43.566;27.820;2022-12-18T05:40:02;99935.22;;;4.81;100.00
9905;BME280;4991;43.566;27.820;2022-12-18T05:42:27;99944.13;;;4.82;100.00
9905;BME280;4991;43.566;27.820;2022-12-18T05:44:53;99940.25;;;4.78;100.00
9905;BME280;4991;43.566;27.820;2022-12-18T05:47:19;99952.38;;;4.75;100.00
9905;BME280;4991;43.566;27.820;2022-12-18T05:49:44;99954.13;;;4.70;100.00
9905;BME280;4991;43.566;27.820;2022-12-18T05:52:10;99947.91;;;4.69;100.00
9905;BME280;4991;43.566;27.820;2022-12-18T05:54:35;99958.38;;;4.66;100.00
9905;BME280;4991;43.566;27.820;2022-12-18T05:57:01;99963.88;;;4.71;100.00
9905;BME280;4991;43.566;27.820;2022-12-18T05:59:28;99981.56;;;4.78;100.00
9905;BME280;4991;43.566;27.820;2022-12-18T06:01:54;99995.91;;;4.79;100.00
9905;BME280;4991;43.566;27.820;2022-12-18T06:04:19;99996.59;;;4.74;100.00
9905;BME280;4991;43.566;27.820;2022-12-18T06:06:45;100004.81;;;4.68;100.00
9905;BME280;4991;43.566;27.820;2022-12-18T06:09:10;100008.69;;;4.72;100.00
9905;BME280;4991;43.566;27.820;2022-12-18T06:11:37;100016.91;;;4.77;100.00
9905;BME280;4991;43.566;27.820;2022-12-18T06:14:04;100018.41;;;4.73;100.00
9905;BME280;4991;43.566;27.820;2022-12-18T06:16:31;100033.56;;;4.62;100.00
9905;BME280;4991;43.566;27.820;2022-12-18T06:19:01;100038.13;;;4.62;100.00
9905;BME280;4991;43.566;27.820;2022-12-18T06:21:28;100050.44;;;4.58;100.00
9905;BME280;4991;43.566;27.820;2022-12-18T06:23:54;100049.16;;;4.49;100.00
9905;BME280;4991;43.566;27.820;2022-12-18T06:26:20;100066.19;;;4.49;100.00
9905;BME280;4991;43.566;27.820;2022-12-18T06:28:46;100065.47;;;4.54;100.00
9905;BME280;4991;43.566;27.820;2022-12-18T06:31:11;100074.38;;;4.54;100.00
9905;BME280;4991;43.566;27.820;2022-12-18T06:33:37;100066.63;;;4.46;100.00
9905;BME280;4991;43.566;27.820;2022-12-18T06:36:12;100065.69;;;4.41;100.00
9905;BME280;4991;43.566;27.820;2022-12-18T06:38:41;100060.19;;;4.47;100.00
9905;BME280;4991;43.566;27.820;2022-12-18T06:41:08;100072.13;;;4.40;100.00
9905;BME280;4991;43.566;27.820;2022-12-18T06:43:35;100075.06;;;4.38;100.00
9905;BME280;4991;43.566;27.820;2022-12-18T06:46:02;100076.13;;;4.37;100.00
9905;BME280;4991;43.566;27.820;2022-12-18T06:48:29;100078.81;;;4.37;100.00
9905;BME280;4991;43.566;27.820;2022-12-18T06:50:54;100075.06;;;4.38;100.00
9905;BME280;4991;43.566;27.820;2022-12-18T06:53:20;100073.19;;;4.39;100.00
9905;BME280;4991;43.566;27.820;2022-12-18T06:55:46;100084.44;;;4.36;100.00
9905;BME280;4991;43.566;27.820;2022-12-18T06:58:11;100087.16;;;4.36;100.00
9905;BME280;4991;43.566;27.820;2022-12-18T07:00:37;100087.75;;;4.38;100.00
9905;BME280;4991;43.566;27.820;2022-12-18T07:03:03;100088.19;;;4.35;100.00
9905;BME280;4991;43.566;27.820;2022-12-18T07:05:28;100081.03;;;4.40;100.00
9905;BME280;4991;43.566;27.820;2022-12-18T07:07:55;100092.31;;;4.49;100.00
9905;BME280;4991;43.566;27.820;2022-12-18T07:10:21;100112.25;;;4.59;100.00
9905;BME280;4991;43.566;27.820;2022-12-18T07:12:46;100114.03;;;4.65;100.00
9905;BME280;4991;43.566;27.820;2022-12-18T07:15:12;100117.44;;;4.72;100.00
9905;BME280;4991;43.566;27.820;2022-12-18T07:17:37;100127.41;;;4.72;100.00
9905;BME280;4991;43.566;27.820;2022-12-18T07:20:03;100130.13;;;4.72;100.00
9905;BME280;4991;43.566;27.820;2022-12-18T07:22:29;100133.50;;;4.67;100.00
9905;BME280;4991;43.566;27.820;2022-12-18T07:24:55;100142.28;;;4.63;100.00
9905;BME280;4991;43.566;27.820;2022-12-18T07:27:21;100160.13;;;4.64;100.00
9905;BME280;4991;43.566;27.820;2022-12-18T07:29:46;100160.59;;;4.61;100.00
9905;BME280;4991;43.566;27.820;2022-12-18T07:32:14;100169.63;;;4.66;100.00
9905;BME280;4991;43.566;27.820;2022-12-18T07:34:39;100172.91;;;4.68;100.00
9905;BME280;4991;43.566;27.820;2022-12-18T07:37:05;100176.44;;;4.69;100.00
9905;BME280;4991;43.566;27.820;2022-12-18T07:39:31;100189.94;;;4.69;100.00
9905;BME280;4991;43.566;27.820;2022-12-18T07:41:57;100184.81;;;4.79;100.00
9905;BME280;4991;43.566;27.820;2022-12-18T07:44:41;100186.19;;;4.70;100.00
9905;BME280;4991;43.566;27.820;2022-12-18T07:47:06;100185.72;;;4.73;100.00
9905;BME280;4991;43.566;27.820;2022-12-18T07:49:32;100194.03;;;4.71;100.00
9905;BME280;4991;43.566;27.820;2022-12-18T07:51:59;100197.81;;;4.70;100.00
9905;BME280;4991;43.566;27.820;2022-12-18T07:54:26;100201.06;;;4.61;100.00
9905;BME280;4991;43.566;27.820;2022-12-18T07:56:51;100197.91;;;4.64;100.00
9905;BME280;4991;43.566;27.820;2022-12-18T07:59:18;100206.59;;;4.66;100.00
9905;BME280;4991;43.566;27.820;2022-12-18T08:01:44;100213.59;;;4.55;100.00
9905;BME280;4991;43.566;27.820;2022-12-18T08:04:11;100223.28;;;4.45;100.00
9905;BME280;4991;43.566;27.820;2022-12-18T08:06:36;100219.81;;;4.56;100.00
9905;BME280;4991;43.566;27.820;2022-12-18T08:09:02;100215.00;;;4.58;100.00
9905;BME280;4991;43.566;27.820;2022-12-18T08:11:28;100207.75;;;4.70;100.00
9905;BME280;4991;43.566;27.820;2022-12-18T08:13:55;100212.44;;;4.63;100.00
9905;BME280;4991;43.566;27.820;2022-12-18T08:16:21;100214.22;;;4.69;100.00
9905;BME280;4991;43.566;27.820;2022-12-18T08:18:48;100219.63;;;4.69;100.00
9905;BME280;4991;43.566;27.820;2022-12-18T08:21:17;100231.47;;;4.68;100.00
9905;BME280;4991;43.566;27.820;2022-12-18T08:23:44;100224.56;;;4.72;100.00
9905;BME280;4991;43.566;27.820;2022-12-18T08:26:15;100235.72;;;4.75;100.00
9905;BME280;4991;43.566;27.820;2022-12-18T08:28:41;100230.44;;;4.80;100.00
9905;BME280;4991;43.566;27.820;2022-12-18T08:31:07;100232.91;;;4.82;100.00
9905;BME280;4991;43.566;27.820;2022-12-18T08:33:35;100236.91;;;4.91;100.00
9905;BME280;4991;43.566;27.820;2022-12-18T08:36:02;100242.44;;;4.96;100.00
9905;BME280;4991;43.566;27.820;2022-12-18T08:38:29;100232.72;;;5.06;100.00
9905;BME280;4991;43.566;27.820;2022-12-18T08:41:05;100222.75;;;5.07;100.00
9905;BME280;4991;43.566;27.820;2022-12-18T08:43:31;100234.81;;;5.16;100.00
9905;BME280;4991;43.566;27.820;2022-12-18T08:46:16;100230.34;;;4.98;100.00
9905;BME280;4991;43.566;27.820;2022-12-18T08:48:42;100234.44;;;4.89;100.00
9905;BME280;4991;43.566;27.820;2022-12-18T08:51:08;100229.16;;;4.94;100.00
9905;BME280;4991;43.566;27.820;2022-12-18T08:53:35;100241.50;;;4.90;100.00
9905;BME280;4991;43.566;27.820;2022-12-18T08:56:01;100232.34;;;4.91;100.00
9905;BME280;4991;43.566;27.820;2022-12-18T08:58:27;100222.16;;;5.05;100.00
9905;BME280;4991;43.566;27.820;2022-12-18T09:00:52;100225.34;;;5.13;100.00
9905;BME280;4991;43.566;27.820;2022-12-18T09:03:18;100228.75;;;5.09;100.00
9905;BME280;4991;43.566;27.820;2022-12-18T09:05:47;100224.97;;;5.21;100.00
9905;BME280;4991;43.566;27.820;2022-12-18T09:08:13;100215.47;;;5.31;100.00
9905;BME280;4991;43.566;27.820;2022-12-18T09:10:43;100230.38;;;5.33;100.00
9905;BME280;4991;43.566;27.820;2022-12-18T09:13:10;100225.22;;;5.43;100.00
9905;BME280;4991;43.566;27.820;2022-12-18T09:15:48;100229.31;;;5.57;100.00
9905;BME280;4991;43.566;27.820;2022-12-18T09:18:15;100224.97;;;5.56;100.00
9905;BME280;4991;43.566;27.820;2022-12-18T09:20:41;100235.41;;;5.64;100.00
9905;BME280;4991;43.566;27.820;2022-12-18T09:23:08;100231.69;;;5.54;100.00
9905;BME280;4991;43.566;27.820;2022-12-18T09:25:35;100231.22;;;5.45;100.00
9905;BME280;4991;43.566;27.820;2022-12-18T09:28:14;100225.47;;;5.30;100.00
9905;BME280;4991;43.566;27.820;2022-12-18T09:30:49;100220.16;;;5.35;100.00
9905;BME280;4991;43.566;27.820;2022-12-18T09:33:16;100223.34;;;5.44;100.00
9905;BME280;4991;43.566;27.820;2022-12-18T09:35:43;100231.78;;;5.36;100.00
9905;BME280;4991;43.566;27.820;2022-12-18T09:38:27;100228.63;;;5.27;100.00
9905;BME280;4991;43.566;27.820;2022-12-18T09:40:57;100224.38;;;5.19;100.00
9905;BME280;4991;43.566;27.820;2022-12-18T09:43:46;100234.28;;;5.25;100.00
9905;BME280;4991;43.566;27.820;2022-12-18T09:46:18;100247.41;;;5.34;100.00
9905;BME280;4991;43.566;27.820;2022-12-18T09:48:49;100245.53;;;5.46;100.00
9905;BME280;4991;43.566;27.820;2022-12-18T09:54:37;100241.53;;;5.48;100.00
9905;BME280;4991;43.566;27.820;2022-12-18T09:57:04;100243.28;;;5.66;100.00
9905;BME280;4991;43.566;27.820;2022-12-18T09:59:37;100253.97;;;5.61;100.00
9905;BME280;4991;43.566;27.820;2022-12-18T10:02:17;100250.81;;;5.64;100.00
9905;BME280;4991;43.566;27.820;2022-12-18T10:04:46;100252.09;;;5.61;100.00
9905;BME280;4991;43.566;27.820;2022-12-18T10:10:06;100250.22;;;5.62;100.00
9905;BME280;4991;43.566;27.820;2022-12-18T10:20:56;100260.22;;;5.61;100.00
9905;BME280;4991;43.566;27.820;2022-12-18T10:26:26;100251.16;;;5.56;100.00
9905;BME280;4991;43.566;27.820;2022-12-18T10:28:53;100250.47;;;5.49;100.00
9905;BME280;4991;43.566;27.820;2022-12-18T10:31:23;100249.53;;;5.55;100.00
9905;BME280;4991;43.566;27.820;2022-12-18T10:33:49;100252.59;;;5.47;100.00
9905;BME280;4991;43.566;27.820;2022-12-18T10:36:15;100261.06;;;5.50;100.00
9905;BME280;4991;43.566;27.820;2022-12-18T10:38:40;100250.13;;;5.45;100.00
9905;BME280;4991;43.566;27.820;2022-12-18T10:43:44;100258.00;;;5.47;100.00
9905;BME280;4991;43.566;27.820;2022-12-18T10:46:14;100250.22;;;5.62;100.00
9905;BME280;4991;43.566;27.820;2022-12-18T10:48:56;100258.31;;;5.73;100.00
9905;BME280;4991;43.566;27.820;2022-12-18T10:51:26;100256.66;;;5.72;100.00
9905;BME280;4991;43.566;27.820;2022-12-18T10:53:58;100247.50;;;5.73;100.00
9905;BME280;4991;43.566;27.820;2022-12-18T10:56:27;100252.00;;;5.56;100.00
9905;BME280;4991;43.566;27.820;2022-12-18T10:59:06;100266.88;;;5.24;100.00
9905;BME280;4991;43.566;27.820;2022-12-18T11:04:37;100268.31;;;5.38;100.00
9905;BME280;4991;43.566;27.820;2022-12-18T11:07:16;100267.72;;;5.48;100.00
9905;BME280;4991;43.566;27.820;2022-12-18T11:09:41;100263.16;;;5.60;100.00
9905;BME280;4991;43.566;27.820;2022-12-18T11:14:52;100271.97;;;5.67;100.00
9905;BME280;4991;43.566;27.820;2022-12-18T11:17:41;100267.84;;;5.53;100.00
9905;BME280;4991;43.566;27.820;2022-12-18T11:20:20;100269.72;;;5.41;100.00
9905;BME280;4991;43.566;27.820;2022-12-18T11:23:01;100279.34;;;5.37;100.00
9905;BME280;4991;43.566;27.820;2022-12-18T11:25:28;100281.72;;;5.56;100.00
9905;BME280;4991;43.566;27.820;2022-12-18T11:28:08;100292.03;;;5.48;100.00
9905;BME280;4991;43.566;27.820;2022-12-18T11:31:27;100287.00;;;5.51;100.00
9905;BME280;4991;43.566;27.820;2022-12-18T11:34:12;100286.75;;;5.53;100.00
9905;BME280;4991;43.566;27.820;2022-12-18T11:36:44;100294.75;;;5.59;100.00
9905;BME280;4991;43.566;27.820;2022-12-18T11:42:37;100304.53;;;5.60;100.00
9905;BME280;4991;43.566;27.820;2022-12-18T11:53:03;100303.31;;;5.79;100.00
9905;BME280;4991;43.566;27.820;2022-12-18T11:58:51;100304.75;;;5.82;100.00
9905;BME280;4991;43.566;27.820;2022-12-18T12:01:35;100304.31;;;5.85;100.00
9905;BME280;4991;43.566;27.820;2022-12-18T12:07:21;100309.31;;;5.81;100.00
9905;BME280;4991;43.566;27.820;2022-12-18T12:21:40;100311.31;;;6.09;100.00
9905;BME280;4991;43.566;27.820;2022-12-18T12:35:17;100310.41;;;5.92;100.00
9905;BME280;4991;43.566;27.820;2022-12-18T12:38:10;100312.28;;;5.91;100.00
9905;BME280;4991;43.566;27.820;2022-12-18T12:41:01;100314.38;;;5.78;100.00
9905;BME280;4991;43.566;27.820;2022-12-18T12:43:47;100304.28;;;5.96;100.00
9905;BME280;4991;43.566;27.820;2022-12-18T12:46:17;100316.50;;;5.99;100.00
9905;BME280;4991;43.566;27.820;2022-12-18T12:48:56;100328.97;;;6.11;100.00
9905;BME280;4991;43.566;27.820;2022-12-18T12:51:37;100337.44;;;6.15;100.00
9905;BME280;4991;43.566;27.820;2022-12-18T12:54:15;100346.81;;;6.12;100.00
9905;BME280;4991;43.566;27.820;2022-12-18T12:56:59;100342.63;;;5.93;100.00
9905;BME280;4991;43.566;27.820;2022-12-18T13:02:42;100340.81;;;5.64;100.00
9905;BME280;4991;43.566;27.820;2022-12-18T13:08:31;100358.94;;;5.64;100.00
9905;BME280;4991;43.566;27.820;2022-12-18T13:10:58;100361.72;;;5.57;100.00
9905;BME280;4991;43.566;27.820;2022-12-18T13:13:51;100358.31;;;5.50;100.00
9905;BME280;4991;43.566;27.820;2022-12-18T13:16:22;100360.19;;;5.50;100.00
9905;BME280;4991;43.566;27.820;2022-12-18T13:18:54;100363.59;;;5.45;100.00
9905;BME280;4991;43.566;27.820;2022-12-18T13:21:28;100364.41;;;5.46;100.00
9905;BME280;4991;43.566;27.820;2022-12-18T13:23:54;100370.75;;;5.40;100.00
9905;BME280;4991;43.566;27.820;2022-12-18T13:28:54;100380.81;;;5.32;100.00
9905;BME280;4991;43.566;27.820;2022-12-18T13:34:25;100388.00;;;5.27;100.00
9905;BME280;4991;43.566;27.820;2022-12-18T13:36:52;100397.03;;;5.32;100.00
9905;BME280;4991;43.566;27.820;2022-12-18T13:41:46;100397.00;;;5.21;100.00
9905;BME280;4991;43.566;27.820;2022-12-18T13:44:32;100399.56;;;5.16;100.00
9905;BME280;4991;43.566;27.820;2022-12-18T13:46:59;100392.28;;;5.16;100.00
9905;BME280;4991;43.566;27.820;2022-12-18T13:49:40;100399.16;;;5.31;100.00
9905;BME280;4991;43.566;27.820;2022-12-18T13:54:45;100402.19;;;5.34;100.00
9905;BME280;4991;43.566;27.820;2022-12-18T13:57:28;100402.66;;;5.31;100.00
9905;BME280;4991;43.566;27.820;2022-12-18T13:59:55;100405.88;;;5.10;100.00
9905;BME280;4991;43.566;27.820;2022-12-18T14:02:23;100422.38;;;5.20;100.00
9905;BME280;4991;43.566;27.820;2022-12-18T14:04:51;100416.25;;;5.24;100.00
9905;BME280;4991;43.566;27.820;2022-12-18T14:07:22;100416.09;;;5.08;100.00
9905;BME280;4991;43.566;27.820;2022-12-18T14:09:52;100421.25;;;5.09;100.00
9905;BME280;4991;43.566;27.820;2022-12-18T14:15:03;100428.28;;;4.99;100.00
9905;BME280;4991;43.566;27.820;2022-12-18T14:17:31;100443.56;;;5.05;100.00
9905;BME280;4991;43.566;27.820;2022-12-18T14:19:57;100445.28;;;4.99;100.00
9905;BME280;4991;43.566;27.820;2022-12-18T14:22:25;100453.00;;;4.96;100.00
9905;BME280;4991;43.566;27.820;2022-12-18T14:25:25;100453.91;;;4.90;100.00
9905;BME280;4991;43.566;27.820;2022-12-18T14:28:14;100457.16;;;4.80;100.00
9905;BME280;4991;43.566;27.820;2022-12-18T14:30:45;100462.19;;;4.77;100.00
9905;BME280;4991;43.566;27.820;2022-12-18T14:33:13;100464.03;;;4.76;100.00
9905;BME280;4991;43.566;27.820;2022-12-18T14:38:30;100474.06;;;4.69;100.00
9905;BME280;4991;43.566;27.820;2022-12-18T14:41:01;100481.53;;;4.74;100.00
9905;BME280;4991;43.566;27.820;2022-12-18T14:43:29;100476.06;;;4.62;100.00
9905;BME280;4991;43.566;27.820;2022-12-18T14:45:56;100478.75;;;4.62;100.00
9905;BME280;4991;43.566;27.820;2022-12-18T14:48:42;100487.16;;;4.72;100.00
9905;BME280;4991;43.566;27.820;2022-12-18T14:51:23;100490.13;;;4.64;100.00
9905;BME280;4991;43.566;27.820;2022-12-18T14:53:57;100505.56;;;4.57;100.00
9905;BME280;4991;43.566;27.820;2022-12-18T14:56:34;100497.63;;;4.62;100.00
9905;BME280;4991;43.566;27.820;2022-12-18T14:59:03;100494.56;;;4.59;100.00
9905;BME280;4991;43.566;27.820;2022-12-18T15:04:02;100495.97;;;4.61;100.00
9905;BME280;4991;43.566;27.820;2022-12-18T15:08:55;100502.88;;;4.57;100.00
9905;BME280;4991;43.566;27.820;2022-12-18T15:16:56;100515.81;;;4.49;100.00
9905;BME280;4991;43.566;27.820;2022-12-18T15:19:34;100530.06;;;4.38;100.00
9905;BME280;4991;43.566;27.820;2022-12-18T15:22:00;100534.16;;;4.40;100.00
9905;BME280;4991;43.566;27.820;2022-12-18T15:24:30;100534.06;;;4.29;100.00
9905;BME280;4991;43.566;27.820;2022-12-18T15:26:56;100549.03;;;4.25;100.00
9905;BME280;4991;43.566;27.820;2022-12-18T15:29:22;100541.81;;;4.19;100.00